createdAt,value
2022-10-22T00:01:44.035Z,11.58
2022-10-22T00:04:47.878Z,11.60
2022-10-22T00:07:52.494Z,11.33
2022-10-22T00:10:55.668Z,11.69
2022-10-22T00:13:59.139Z,11.73
2022-10-22T00:17:02.483Z,11.77
2022-10-22T00:20:06.942Z,11.67
2022-10-22T00:23:11.434Z,11.71
2022-10-22T00:26:14.645Z,11.67
2022-10-22T00:29:19.960Z,11.69
2022-10-22T00:32:23.089Z,11.75
2022-10-22T00:35:26.332Z,11.79
2022-10-22T00:38:31.048Z,11.82
2022-10-22T00:41:34.215Z,11.85
2022-10-22T00:45:02.453Z,11.82
2022-10-22T00:48:07.997Z,11.87
2022-10-22T00:51:11.091Z,11.88
2022-10-22T00:54:15.898Z,11.79
2022-10-22T00:57:20.757Z,11.88
2022-10-22T01:00:24.602Z,11.81
2022-10-22T01:03:29.552Z,11.98
2022-10-22T01:06:34.409Z,11.96
2022-10-22T01:09:44.185Z,11.97
2022-10-22T01:12:58.468Z,11.73
2022-10-22T01:16:11.627Z,11.89
2022-10-22T01:19:33.154Z,12.12
2022-10-22T01:22:42.427Z,12.30
2022-10-22T01:25:51.481Z,12.26
2022-10-22T01:29:02.354Z,12.36
2022-10-22T01:32:11.062Z,12.40
2022-10-22T01:35:19.866Z,12.31
2022-10-22T01:38:25.437Z,12.35
2022-10-22T01:41:29.666Z,12.37
2022-10-22T01:47:57.325Z,12.28
2022-10-22T01:51:15.454Z,12.23
2022-10-22T01:54:28.823Z,12.16
2022-10-22T01:57:40.531Z,12.17
2022-10-22T02:00:51.628Z,12.02
2022-10-22T02:04:02.487Z,12.02
2022-10-22T02:07:08.969Z,11.85
2022-10-22T02:10:13.948Z,11.92
2022-10-22T02:13:23.597Z,11.85
2022-10-22T02:16:32.649Z,11.89
2022-10-22T02:19:41.688Z,11.89
2022-10-22T02:22:45.031Z,11.78
2022-10-22T02:25:52.545Z,11.83
2022-10-22T02:29:04.386Z,11.71
2022-10-22T02:32:13.090Z,11.52
2022-10-22T02:35:20.340Z,11.58
2022-10-22T02:38:25.048Z,11.45
2022-10-22T02:41:28.854Z,11.64
2022-10-22T02:44:32.278Z,11.64
2022-10-22T02:47:36.818Z,11.63
2022-10-22T02:50:39.954Z,11.65
2022-10-22T02:53:43.159Z,11.65
2022-10-22T02:56:46.290Z,11.73
2022-10-22T02:59:49.954Z,11.69
2022-10-22T03:02:54.768Z,11.68
2022-10-22T03:05:57.990Z,11.69
2022-10-22T03:09:01.258Z,11.46
2022-10-22T03:12:04.754Z,11.49
2022-10-22T03:15:08.454Z,11.39
2022-10-22T03:18:13.120Z,11.38
2022-10-22T03:21:26.474Z,11.37
2022-10-22T03:24:35.330Z,11.42
2022-10-22T03:27:40.606Z,11.35
2022-10-22T03:34:25.026Z,11.50
2022-10-22T03:37:28.609Z,11.39
2022-10-22T03:40:31.839Z,11.36
2022-10-22T03:43:36.102Z,11.39
2022-10-22T03:46:39.277Z,11.35
2022-10-22T03:49:43.761Z,11.43
2022-10-22T03:52:46.885Z,11.54
2022-10-22T03:55:50.116Z,11.57
2022-10-22T03:58:56.654Z,11.47
2022-10-22T04:01:59.879Z,11.44
2022-10-22T04:05:04.898Z,11.44
2022-10-22T04:08:08.217Z,11.47
2022-10-22T04:11:12.799Z,11.40
2022-10-22T04:14:15.941Z,11.42
2022-10-22T04:17:19.326Z,11.43
2022-10-22T04:20:23.912Z,11.45
2022-10-22T04:23:47.775Z,11.36
2022-10-22T04:26:51.077Z,11.34
2022-10-22T04:29:54.204Z,11.35
2022-10-22T04:32:57.481Z,11.34
2022-10-22T04:36:03.032Z,11.29
2022-10-22T04:39:07.344Z,11.25
2022-10-22T04:42:10.484Z,11.30
2022-10-22T04:45:15.583Z,11.38
2022-10-22T04:48:18.916Z,10.68
2022-10-22T04:51:25.449Z,11.46
2022-10-22T04:54:32.170Z,11.44
2022-10-22T04:57:36.416Z,11.53
2022-10-22T05:00:39.592Z,11.52
2022-10-22T05:03:43.719Z,11.47
2022-10-22T05:06:48.719Z,11.41
2022-10-22T05:09:52.249Z,11.43
2022-10-22T05:12:55.589Z,11.38
2022-10-22T05:16:02.237Z,11.36
2022-10-22T05:19:06.973Z,11.25
2022-10-22T05:22:11.532Z,11.32
2022-10-22T05:25:14.711Z,11.45
2022-10-22T05:28:17.773Z,11.06
2022-10-22T05:31:21.695Z,11.04
2022-10-22T05:34:24.824Z,11.06
2022-10-22T05:37:29.333Z,11.29
2022-10-22T05:40:32.461Z,10.95
2022-10-22T05:43:35.984Z,10.92
2022-10-22T05:46:46.417Z,10.85
2022-10-22T05:49:50.344Z,10.79
2022-10-22T05:52:54.832Z,10.77
2022-10-22T05:56:01.266Z,10.71
2022-10-22T05:59:04.774Z,10.55
2022-10-22T06:02:10.364Z,10.71
2022-10-22T06:05:13.506Z,10.83
2022-10-22T06:08:19.138Z,10.83
2022-10-22T06:11:24.566Z,10.67
2022-10-22T06:14:29.363Z,10.78
2022-10-22T06:17:32.827Z,10.82
2022-10-22T06:20:36.301Z,10.90
2022-10-22T06:23:41.576Z,11.05
2022-10-22T06:26:44.799Z,10.94
2022-10-22T06:29:49.067Z,11.03
2022-10-22T06:32:52.209Z,10.94
2022-10-22T06:35:55.473Z,10.92
2022-10-22T06:39:00.006Z,11.18
2022-10-22T06:42:03.093Z,10.88
2022-10-22T06:45:11.759Z,11.04
2022-10-22T06:48:14.870Z,11.00
2022-10-22T06:51:19.028Z,11.10
2022-10-22T06:54:24.525Z,11.13
2022-10-22T06:57:27.591Z,11.19
2022-10-22T07:00:31.133Z,10.72
2022-10-22T07:03:34.605Z,11.27
2022-10-22T07:06:38.138Z,11.20
2022-10-22T07:09:45.454Z,11.34
2022-10-22T07:12:48.510Z,11.35
2022-10-22T07:15:54.525Z,11.42
2022-10-22T07:18:57.685Z,11.32
2022-10-22T07:22:01.103Z,11.30
2022-10-22T07:25:07.267Z,11.37
2022-10-22T07:28:10.735Z,11.48
2022-10-22T07:31:16.191Z,11.52
2022-10-22T07:37:23.419Z,11.80
2022-10-22T07:40:28.021Z,11.87
2022-10-22T07:43:31.334Z,11.82
2022-10-22T07:46:35.220Z,12.16
2022-10-22T07:49:38.605Z,12.39
2022-10-22T07:52:42.507Z,12.52
2022-10-22T07:55:49.980Z,12.63
2022-10-22T07:58:53.422Z,12.49
2022-10-22T08:01:56.799Z,12.31
2022-10-22T08:05:00.055Z,12.50
2022-10-22T08:08:03.375Z,12.66
2022-10-22T08:11:08.211Z,12.47
2022-10-22T08:14:11.800Z,12.53
2022-10-22T08:17:15.017Z,12.30
2022-10-22T08:20:18.457Z,12.29
2022-10-22T08:23:25.945Z,12.57
2022-10-22T08:26:32.146Z,12.30
2022-10-22T08:29:35.287Z,12.53
2022-10-22T08:32:38.641Z,12.60
2022-10-22T08:35:41.757Z,12.68
2022-10-22T08:38:44.878Z,12.70
2022-10-22T08:42:00.334Z,12.94
2022-10-22T08:45:13.754Z,13.21
2022-10-22T08:48:31.066Z,12.98
2022-10-22T08:51:40.325Z,13.08
2022-10-22T08:54:51.811Z,12.86
2022-10-22T08:58:05.424Z,13.23
2022-10-22T09:01:14.458Z,13.10
2022-10-22T09:04:25.352Z,13.37
2022-10-22T09:07:33.774Z,13.68
2022-10-22T09:10:39.889Z,13.68
2022-10-22T09:13:46.720Z,13.80
2022-10-22T09:17:06.238Z,13.76
2022-10-22T09:20:16.934Z,13.98
2022-10-22T09:23:53.713Z,13.97
2022-10-22T09:27:18.631Z,14.24
2022-10-22T09:34:27.479Z,14.73
2022-10-22T09:37:31.233Z,14.56
2022-10-22T09:40:44.054Z,14.97
2022-10-22T09:43:47.899Z,14.80
2022-10-22T09:46:51.405Z,14.52
2022-10-22T09:50:08.062Z,14.23
2022-10-22T09:53:18.745Z,14.28
2022-10-22T09:56:26.715Z,14.26
2022-10-22T09:59:32.854Z,14.28
2022-10-22T10:02:39.070Z,14.43
2022-10-22T10:05:44.295Z,14.81
2022-10-22T10:08:48.330Z,15.19
2022-10-22T10:12:00.860Z,15.19
2022-10-22T10:15:14.705Z,15.35
2022-10-22T10:18:28.567Z,15.46
2022-10-22T10:21:41.285Z,15.61
2022-10-22T10:25:03.835Z,15.57
2022-10-22T10:28:21.541Z,15.57
2022-10-22T10:31:37.387Z,15.23
2022-10-22T10:34:47.357Z,15.28
2022-10-22T10:38:07.166Z,15.06
2022-10-22T10:41:27.318Z,15.84
2022-10-22T10:44:46.759Z,15.67
2022-10-22T10:48:25.137Z,15.79
2022-10-22T10:51:48.076Z,15.76
2022-10-22T10:55:04.111Z,15.91
2022-10-22T10:58:19.709Z,15.71
2022-10-22T11:01:30.955Z,15.61
2022-10-22T11:05:00.032Z,15.79
2022-10-22T11:08:09.628Z,16.07
2022-10-22T11:11:19.880Z,16.32
2022-10-22T11:14:30.326Z,16.59
2022-10-22T11:17:40.599Z,17.30
2022-10-22T11:20:54.823Z,16.74
2022-10-22T11:24:06.376Z,16.56
2022-10-22T11:27:19.080Z,16.65
2022-10-22T11:30:24.488Z,16.88
2022-10-22T11:33:34.845Z,17.01
2022-10-22T11:36:39.900Z,16.96
2022-10-22T11:39:46.144Z,17.21
2022-10-22T11:42:54.177Z,16.96
2022-10-22T11:46:25.419Z,17.20
2022-10-22T11:49:42.220Z,17.07
2022-10-22T11:52:55.022Z,17.16
2022-10-22T11:56:00.072Z,17.39
2022-10-22T11:59:09.031Z,17.66
2022-10-22T12:02:30.613Z,16.87
2022-10-22T12:05:37.823Z,16.96
2022-10-22T12:08:44.897Z,16.55
2022-10-22T12:11:51.630Z,16.56
2022-10-22T12:14:59.369Z,16.32
2022-10-22T12:18:06.535Z,16.13
2022-10-22T12:21:14.229Z,15.92
2022-10-22T12:24:21.215Z,16.45
2022-10-22T12:27:26.722Z,16.38
2022-10-22T12:30:34.721Z,16.26
2022-10-22T12:33:39.884Z,16.55
2022-10-22T12:36:43.387Z,16.60
2022-10-22T12:39:47.391Z,16.20
2022-10-22T12:42:52.903Z,16.39
2022-10-22T12:45:59.787Z,16.21
2022-10-22T12:49:06.906Z,16.00
2022-10-22T12:52:15.931Z,16.01
2022-10-22T12:55:25.530Z,15.70
2022-10-22T12:58:34.801Z,16.76
2022-10-22T13:01:41.529Z,16.52
2022-10-22T13:05:15.025Z,16.60
2022-10-22T13:08:22.785Z,16.64
2022-10-22T13:11:32.762Z,16.40
2022-10-22T13:14:38.500Z,16.34
2022-10-22T13:17:43.061Z,16.40
2022-10-22T13:20:56.731Z,16.10
2022-10-22T13:24:01.949Z,16.09
2022-10-22T13:27:05.483Z,16.30
2022-10-22T13:30:23.617Z,16.72
2022-10-22T13:33:30.300Z,17.11
2022-10-22T13:36:34.835Z,17.22
2022-10-22T13:39:37.977Z,17.11
2022-10-22T13:42:41.314Z,17.09
2022-10-22T13:45:46.321Z,16.97
2022-10-22T13:48:52.570Z,16.87
2022-10-22T13:51:59.058Z,16.79
2022-10-22T13:55:02.211Z,16.88
2022-10-22T13:58:11.783Z,17.00
2022-10-22T14:01:21.833Z,16.92
2022-10-22T14:04:25.463Z,16.73
2022-10-22T14:07:30.192Z,16.75
2022-10-22T14:10:33.397Z,16.91
2022-10-22T14:13:36.524Z,16.88
2022-10-22T14:16:39.755Z,16.95
2022-10-22T14:19:44.368Z,16.89
2022-10-22T14:22:50.673Z,16.78
2022-10-22T14:25:54.391Z,16.98
2022-10-22T14:29:09.471Z,16.70
2022-10-22T14:32:16.186Z,16.84
2022-10-22T14:35:22.267Z,16.43
2022-10-22T14:38:26.896Z,16.58
2022-10-22T14:41:30.665Z,16.47
2022-10-22T14:44:33.772Z,16.78
2022-10-22T14:47:36.838Z,16.29
2022-10-22T14:50:40.047Z,16.44
2022-10-22T14:53:44.692Z,16.46
2022-10-22T14:56:47.823Z,16.11
2022-10-22T14:59:54.790Z,16.03
2022-10-22T15:03:03.265Z,15.97
2022-10-22T15:06:08.687Z,16.00
2022-10-22T15:09:13.291Z,15.83
2022-10-22T15:12:16.479Z,15.55
2022-10-22T15:15:22.660Z,15.61
2022-10-22T15:18:27.098Z,15.96
2022-10-22T15:21:30.334Z,15.72
2022-10-22T15:24:35.024Z,15.75
2022-10-22T15:27:38.414Z,15.44
2022-10-22T15:34:26.293Z,15.59
2022-10-22T15:37:30.816Z,15.33
2022-10-22T15:40:34.084Z,15.30
2022-10-22T15:43:38.087Z,15.31
2022-10-22T15:46:41.832Z,14.94
2022-10-22T15:49:46.521Z,14.75
2022-10-22T15:52:49.810Z,14.54
2022-10-22T15:55:55.237Z,14.66
2022-10-22T15:59:00.286Z,14.51
2022-10-22T16:02:03.500Z,14.22
2022-10-22T16:05:09.401Z,14.36
2022-10-22T16:08:12.635Z,13.97
2022-10-22T16:11:16.067Z,14.04
2022-10-22T16:14:21.374Z,13.85
2022-10-22T16:17:33.964Z,13.77
2022-10-22T16:20:41.611Z,14.00
2022-10-22T16:23:45.154Z,13.56
2022-10-22T16:26:49.241Z,13.70
2022-10-22T16:29:52.484Z,13.60
2022-10-22T16:32:58.039Z,13.57
2022-10-22T16:36:03.252Z,13.48
2022-10-22T16:39:07.811Z,13.40
2022-10-22T16:42:11.309Z,13.31
2022-10-22T16:48:18.644Z,13.20
2022-10-22T16:51:25.416Z,12.64
2022-10-22T16:54:28.856Z,12.79
2022-10-22T16:57:33.948Z,12.48
2022-10-22T17:00:40.030Z,12.56
2022-10-22T17:03:43.394Z,12.67
2022-10-22T17:06:47.990Z,12.68
2022-10-22T17:09:51.471Z,12.65
2022-10-22T17:12:54.696Z,12.47
2022-10-22T17:16:02.953Z,12.17
2022-10-22T17:19:06.392Z,12.39
2022-10-22T17:22:14.799Z,12.36
2022-10-22T17:25:24.606Z,12.16
2022-10-22T17:28:28.791Z,12.59
2022-10-22T17:31:35.412Z,11.98
2022-10-22T17:34:38.640Z,12.27
2022-10-22T17:37:43.708Z,11.89
2022-10-22T17:40:47.348Z,11.78
2022-10-22T17:43:50.851Z,11.82
2022-10-22T17:46:54.079Z,11.65
2022-10-22T17:49:57.977Z,11.74
2022-10-22T17:53:02.857Z,11.65
2022-10-22T17:56:10.154Z,11.96
2022-10-22T17:59:17.065Z,11.99
2022-10-22T18:02:20.258Z,12.02
2022-10-22T18:05:25.568Z,11.90
2022-10-22T18:08:30.347Z,11.61
2022-10-22T18:11:36.152Z,11.20
2022-10-22T18:14:39.636Z,11.57
2022-10-22T18:17:43.239Z,10.54
2022-10-22T18:20:55.485Z,10.18
2022-10-22T18:24:00.211Z,10.49
2022-10-22T18:27:14.292Z,10.46
2022-10-22T18:30:17.862Z,10.50
2022-10-22T18:33:28.642Z,10.38
2022-10-22T18:36:35.239Z,10.71
2022-10-22T18:39:45.032Z,11.40
2022-10-22T18:42:52.669Z,11.31
2022-10-22T18:45:56.141Z,11.05
2022-10-22T18:49:00.115Z,10.44
2022-10-22T18:52:13.307Z,10.85
2022-10-22T18:55:24.616Z,9.86
2022-10-22T18:58:29.061Z,9.72
2022-10-22T19:01:35.476Z,9.53
2022-10-22T19:04:46.219Z,9.64
2022-10-22T19:07:50.658Z,10.55
2022-10-22T19:10:55.426Z,9.78
2022-10-22T19:14:04.965Z,10.30
2022-10-22T19:17:08.425Z,9.23
2022-10-22T19:20:12.206Z,10.27
2022-10-22T19:23:19.896Z,10.76
2022-10-22T19:26:32.402Z,9.30
2022-10-22T19:29:43.682Z,9.63
2022-10-22T19:32:48.765Z,10.54
2022-10-22T19:35:52.196Z,10.70
2022-10-22T19:39:03.349Z,9.38
2022-10-22T19:42:08.102Z,10.01
2022-10-22T19:45:12.083Z,10.26
2022-10-22T19:48:26.202Z,10.15
2022-10-22T19:51:30.995Z,8.97
2022-10-22T19:54:40.654Z,10.34
2022-10-22T19:57:45.558Z,10.24
2022-10-22T20:00:50.272Z,10.35
2022-10-22T20:03:58.101Z,10.32
2022-10-22T20:07:04.393Z,10.15
2022-10-22T20:10:09.579Z,10.17
2022-10-22T20:13:23.555Z,9.56
2022-10-22T20:16:30.040Z,9.08
2022-10-22T20:19:40.851Z,8.82
2022-10-22T20:22:44.691Z,10.03
2022-10-22T20:25:48.999Z,9.91
2022-10-22T20:28:59.915Z,9.35
2022-10-22T20:32:05.501Z,9.69
2022-10-22T20:35:16.512Z,8.82
2022-10-22T20:38:19.949Z,8.98
2022-10-22T20:41:24.136Z,8.18
2022-10-22T20:44:34.950Z,8.87
2022-10-22T20:47:50.997Z,10.02
2022-10-22T20:50:55.337Z,9.27
2022-10-22T20:53:59.087Z,9.81
2022-10-22T20:57:02.520Z,10.07
2022-10-22T21:00:17.737Z,10.36
2022-10-22T21:03:21.357Z,9.58
2022-10-22T21:06:35.201Z,8.88
2022-10-22T21:09:38.630Z,8.93
2022-10-22T21:12:42.438Z,9.95
2022-10-22T21:15:57.304Z,9.70
2022-10-22T21:19:01.182Z,9.51
2022-10-22T21:22:12.869Z,9.26
2022-10-22T21:25:16.542Z,9.81
2022-10-22T21:28:20.267Z,8.98
2022-10-22T21:34:24.560Z,9.53
2022-10-22T21:37:30.042Z,9.50
2022-10-22T21:40:33.614Z,9.46
2022-10-22T21:43:38.883Z,9.53
2022-10-22T21:46:42.087Z,10.12
2022-10-22T21:49:46.650Z,9.87
2022-10-22T21:52:49.807Z,9.91
2022-10-22T21:55:52.970Z,9.52
2022-10-22T21:58:57.090Z,9.31
2022-10-22T22:02:04.832Z,9.41
2022-10-22T22:05:10.942Z,9.40
2022-10-22T22:08:15.098Z,9.42
2022-10-22T22:11:20.943Z,9.93
2022-10-22T22:14:24.125Z,9.43
2022-10-22T22:17:27.217Z,9.87
2022-10-22T22:20:31.935Z,9.48
2022-10-22T22:23:37.715Z,9.98
2022-10-22T22:26:41.464Z,9.99
2022-10-22T22:29:44.940Z,9.63
2022-10-22T22:32:48.199Z,9.85
2022-10-22T22:35:52.656Z,10.00
2022-10-22T22:38:56.866Z,9.60
2022-10-22T22:42:00.234Z,9.57
2022-10-22T22:45:03.391Z,9.48
2022-10-22T22:48:06.689Z,9.45
2022-10-22T22:51:11.552Z,9.50
2022-10-22T22:54:14.898Z,9.52
2022-10-22T22:57:18.278Z,9.44
2022-10-22T23:00:21.895Z,9.33
2022-10-22T23:03:25.044Z,9.73
2022-10-22T23:06:31.941Z,9.74
2022-10-22T23:09:35.484Z,9.74
2022-10-22T23:12:38.852Z,9.71
2022-10-22T23:15:42.149Z,9.69
2022-10-22T23:18:45.889Z,9.45
2022-10-22T23:21:52.846Z,9.73
2022-10-22T23:24:55.952Z,9.59
2022-10-22T23:27:59.231Z,9.57
2022-10-22T23:31:05.068Z,9.39
2022-10-22T23:34:09.088Z,9.55
2022-10-22T23:37:13.656Z,9.40
2022-10-22T23:40:16.944Z,9.35
2022-10-22T23:43:20.238Z,9.30
2022-10-22T23:46:43.376Z,9.25
2022-10-22T23:49:46.725Z,9.37
2022-10-22T23:52:51.846Z,9.29
2022-10-22T23:55:54.973Z,9.31
2022-10-22T23:58:58.656Z,9.30
